Big Pine Key, Florida
Current Conditions -  °F | °C
As of 7:53 PM on Saturday 25 Oct 2014 (Local Time) from KMTH Reporting Station
Clear Clear  
Wind Chill: 76°   Ceiling: Unl
Heat Index: 76°   Visibility: 10mi
Dew Point: 67°   Wind: 10mph
Humidity: 74%   Direction: 330°NNW
Pressure: 29.92"   Gusts: NA
Location:  24.67°N, 81.35°W
Report Text: KMTH 252353Z AUTO 33009KT 10SM CLR 24/19 A2992 RMK AO2 SLP130 T02440194 10278 20244 53011 $
Loading
Personal Weather Stations






























Interactive Weather Map
Tropical Storm Tracking
New forecast layout! Learn more

10-Day Weather Forecast

Advertisements
Track Severe Weather on mobile